LICB

Details ICAO LICB
Name Magliocco
Region Italy
Timezone Europe/Rome (UTC+1.0)
Plans Departing 25
Arriving 35
Stats Elevation 757 ft / 231 m (AMSL)
Location 36.994031° 14.606274°
Runways 1
Magnetic Variation 3.115° E
Sunrise 2017-12-17 06:10:13 UTC / 2017-12-17 07:10:13 Local
Sunset 2017-12-17 15:47:53 UTC / 2017-12-17 16:47:53 Local
Advertisement - Login to hide

Runways

ID Width Length Bearing (true) Bearing (mag) Surface Threshold Offset Overrun Length
05 147 ft / 45 m 8,334 ft / 2,540 m 49.99° 46.88° Asphalt 196 ft / 60 m 452 ft / 138 m
23 147 ft / 45 m 8,334 ft / 2,540 m 230.01° 226.90° Asphalt 0 ft / 0 m 0 ft / 0 m

Map

Weather


0- 5 10 15 20 25 30 35+ Temperature / ° C

Clouds and Precipitation
Forecast for 2017-12-18 00:00 UTC. Updated an hour ago

Ground ~20,000 ft ~40,000 ft Winds

METAR

LICB 171950Z 13003KT 9999 FEW040 04/02 Q1018

TAF

Not found
Warning: Do not use this data for real-world aviation or navigation. No guarantee of current accuracy is given.